Time;durP1;ratioP1;P1;durP2;ratioP2;P2;SDS_P1;SDS_P2;PMS_P1;PMS_P2;Temp;Humidity;BMP_temperature;BMP_pressure;BME280_temperature;BME280_humidity;BME280_pressure;Samples;Min_cycle;Max_cycle;Signal;HPM_P1;HPM_P2
2022/01/20 00:00:14;;;;;;;;;;;;;;;16.77;51.16;102531.53;5062494;28;19932;-42
2022/01/20 00:02:41;;;;;;;;;;;;;;;16.77;51.20;102536.88;5063070;28;19929;-42
2022/01/20 00:05:34;;;;;;;;;;;;;;;16.77;50.55;102541.38;5064081;28;20002;-41
2022/01/20 00:08:14;;;;;;;;;;;;;;;16.75;50.56;102541.47;5062889;28;19925;-40
2022/01/20 00:27:27;;;;;;;;;;;;;;;16.71;51.37;102569.38;5063995;28;19951;-40
2022/01/20 00:32:24;;;;;;;;;;;;;;;16.69;51.22;102574.00;5062070;28;20011;-42
2022/01/20 00:37:25;;;;;;;;;;;;;;;16.68;51.26;102574.06;5065094;28;19924;-41
2022/01/20 00:39:51;;;;;;;;;;;;;;;16.68;51.33;102574.06;5063061;28;19931;-42
2022/01/20 00:42:18;;;;;;;;;;;;;;;16.68;51.23;102574.06;5059489;28;21744;-42
2022/01/20 00:44:45;;;;;;;;;;;;;;;16.67;50.96;102570.53;5062924;28;19928;-41
2022/01/20 00:47:13;;;;;;;;;;;;;;;16.67;50.98;102557.16;5060482;28;19928;-42
2022/01/20 00:49:40;;;;;;;;;;;;;;;16.69;50.78;102559.75;5061942;28;20491;-42
2022/01/20 00:52:07;;;;;;;;;;;;;;;16.67;51.42;102558.97;5064861;28;19924;-42
2022/01/20 00:54:34;;;;;;;;;;;;;;;16.67;50.87;102567.88;5062002;28;20400;-42
2022/01/20 00:57:01;;;;;;;;;;;;;;;16.67;51.02;102565.19;5066452;28;20342;-43
2022/01/20 00:59:29;;;;;;;;;;;;;;;16.67;51.31;102570.53;5061516;28;20310;-42
2022/01/20 01:01:57;;;;;;;;;;;;;;;16.66;51.37;102576.88;5061489;28;19959;-42
2022/01/20 01:04:25;;;;;;;;;;;;;;;16.65;51.38;102580.50;5065044;28;19928;-43
2022/01/20 01:09:39;;;;;;;;;;;;;;;16.64;51.22;102577.91;5060142;28;20635;-42
2022/01/20 01:12:09;;;;;;;;;;;;;;;16.62;51.13;102583.38;5065977;28;19928;-41
2022/01/20 01:14:35;;;;;;;;;;;;;;;16.62;50.97;102585.22;5062555;28;19929;-42
2022/01/20 01:22:21;;;;;;;;;;;;;;;16.61;50.98;102581.69;5062187;28;19936;-42
2022/01/20 01:24:52;;;;;;;;;;;;;;;16.61;51.38;102575.47;5064290;28;20388;-41
2022/01/20 01:27:20;;;;;;;;;;;;;;;16.60;50.92;102579.94;5061584;28;20198;-42
2022/01/20 01:32:49;;;;;;;;;;;;;;;16.60;51.26;102573.72;5063422;28;19924;-43
2022/01/20 01:35:16;;;;;;;;;;;;;;;16.58;50.70;102581.88;5067054;28;20272;-43
2022/01/20 01:40:15;;;;;;;;;;;;;;;16.57;51.03;102571.28;5066777;28;19934;-42
2022/01/20 01:42:46;;;;;;;;;;;;;;;16.56;51.60;102567.72;5068227;28;19928;-42
2022/01/20 01:45:24;;;;;;;;;;;;;;;16.58;51.21;102573.00;5065850;28;19928;-43
2022/01/20 01:47:50;;;;;;;;;;;;;;;16.56;51.90;102575.75;5068837;28;19924;-41
2022/01/20 01:50:16;;;;;;;;;;;;;;;16.56;51.37;102581.09;5065426;28;19928;-42
2022/01/20 01:52:43;;;;;;;;;;;;;;;16.53;51.58;102587.53;5063470;28;20373;-42
2022/01/20 01:55:09;;;;;;;;;;;;;;;16.53;51.71;102582.19;5066092;28;19939;-42
2022/01/20 01:57:36;;;;;;;;;;;;;;;16.54;50.76;102594.59;5064213;28;20050;-43
2022/01/20 02:00:07;;;;;;;;;;;;;;;16.53;50.99;102603.59;5065607;28;19933;-42
2022/01/20 02:02:33;;;;;;;;;;;;;;;16.51;51.72;102602.81;5065185;28;19928;-42
2022/01/20 02:05:03;;;;;;;;;;;;;;;16.52;51.26;102601.88;5066376;28;19932;-43
2022/01/20 02:07:59;;;;;;;;;;;;;;;16.51;51.08;102612.69;5067262;28;19924;-42
2022/01/20 02:18:45;;;;;;;;;;;;;;;16.49;50.87;102593.19;5067678;28;20320;-42
2022/01/20 02:21:13;;;;;;;;;;;;;;;16.48;51.63;102591.47;5065228;28;19940;-42
2022/01/20 02:23:39;;;;;;;;;;;;;;;16.47;51.69;102598.63;5067299;28;19925;-42
2022/01/20 02:26:06;;;;;;;;;;;;;;;16.49;51.69;102587.84;5066953;28;20363;-43
2022/01/20 02:28:32;;;;;;;;;;;;;;;16.48;51.08;102581.63;5065767;28;19933;-43
2022/01/20 02:30:59;;;;;;;;;;;;;;;16.48;50.90;102583.44;5063364;28;19925;-43
2022/01/20 02:33:27;;;;;;;;;;;;;;;16.48;51.89;102595.03;5062117;28;19959;-43
2022/01/20 02:35:55;;;;;;;;;;;;;;;16.50;51.32;102619.00;5064997;28;19930;-42
2022/01/20 02:38:29;;;;;;;;;;;;;;;16.49;51.52;102611.94;5066220;28;20229;-42
2022/01/20 02:46:26;;;;;;;;;;;;;;;16.48;51.21;102588.78;5064581;28;19932;-43
2022/01/20 02:48:52;;;;;;;;;;;;;;;16.48;51.46;102599.47;5063732;28;20036;-42
2022/01/20 02:51:18;;;;;;;;;;;;;;;16.47;51.49;102595.94;5063821;28;19966;-43
2022/01/20 02:53:45;;;;;;;;;;;;;;;16.48;51.45;102591.47;5064390;28;19925;-40
2022/01/20 02:56:11;;;;;;;;;;;;;;;16.46;51.17;102585.34;5064400;28;19925;-41
2022/01/20 02:58:38;;;;;;;;;;;;;;;16.46;50.78;102588.88;5062930;28;19959;-41
2022/01/20 03:01:04;;;;;;;;;;;;;;;16.45;51.44;102584.50;5063297;28;19931;-41
2022/01/20 03:03:31;;;;;;;;;;;;;;;16.44;50.50;102573.88;5059982;28;19940;-42
2022/01/20 03:05:57;;;;;;;;;;;;;;;16.42;51.82;102584.69;5062863;28;19928;-42
2022/01/20 03:08:23;;;;;;;;;;;;;;;16.43;51.80;102582.88;5062373;28;19932;-42
2022/01/20 03:10:50;;;;;;;;;;;;;;;16.42;51.21;102579.34;5063751;28;19928;-41
2022/01/20 03:13:16;;;;;;;;;;;;;;;16.41;51.50;102579.47;5065016;28;19951;-41
2022/01/20 03:15:43;;;;;;;;;;;;;;;16.41;51.52;102624.97;5063462;28;19982;-41
2022/01/20 03:18:10;;;;;;;;;;;;;;;16.41;50.90;102614.25;5064820;28;19937;-41
2022/01/20 03:20:36;;;;;;;;;;;;;;;16.41;51.41;102609.75;5065419;28;19964;-42
2022/01/20 03:23:03;;;;;;;;;;;;;;;16.40;51.44;102597.34;5062736;28;19932;-41
2022/01/20 03:25:30;;;;;;;;;;;;;;;16.40;51.67;102602.69;5065614;28;19929;-41
2022/01/20 03:27:57;;;;;;;;;;;;;;;16.40;51.10;102602.69;5064532;28;19928;-40
2022/01/20 03:30:24;;;;;;;;;;;;;;;16.39;51.47;102598.28;5067116;28;20220;-42
2022/01/20 03:32:51;;;;;;;;;;;;;;;16.38;51.55;102601.91;5063881;28;19954;-42
2022/01/20 03:35:17;;;;;;;;;;;;;;;16.37;51.54;102618.94;5062033;28;19932;-41
2022/01/20 03:37:44;;;;;;;;;;;;;;;16.37;50.91;102610.91;5060649;28;19931;-41
2022/01/20 03:40:11;;;;;;;;;;;;;;;16.36;51.25;102625.25;5064329;28;19933;-41
2022/01/20 03:42:38;;;;;;;;;;;;;;;16.36;51.29;102627.94;5064562;28;19928;-42
2022/01/20 03:45:05;;;;;;;;;;;;;;;16.35;50.92;102623.50;5065538;28;20223;-41
2022/01/20 03:47:31;;;;;;;;;;;;;;;16.35;50.75;102628.88;5064027;28;20024;-42
2022/01/20 03:52:27;;;;;;;;;;;;;;;16.34;51.24;102634.31;5068677;28;19929;-42
2022/01/20 03:54:54;;;;;;;;;;;;;;;16.34;51.26;102634.31;5063382;28;19929;-41
2022/01/20 03:57:20;;;;;;;;;;;;;;;16.32;51.38;102645.13;5063146;28;19935;-42
2022/01/20 03:59:47;;;;;;;;;;;;;;;16.32;50.97;102645.13;5061213;28;20023;-42
2022/01/20 04:02:13;;;;;;;;;;;;;;;16.32;50.89;102646.94;5065080;28;19933;-41
2022/01/20 04:04:40;;;;;;;;;;;;;;;16.32;50.74;102650.47;5062402;28;19928;-42
2022/01/20 04:07:06;;;;;;;;;;;;;;;16.30;50.56;102649.72;5064121;28;19967;-42
2022/01/20 04:09:33;;;;;;;;;;;;;;;16.29;51.26;102646.19;5059047;28;19939;-42
2022/01/20 04:11:59;;;;;;;;;;;;;;;16.30;51.53;102647.03;5062988;28;20297;-42
2022/01/20 04:14:28;;;;;;;;;;;;;;;16.30;50.69;102644.38;5060151;28;20532;-41
2022/01/20 04:17:04;;;;;;;;;;;;;;;16.29;50.78;102642.66;5049483;28;20037;-41
2022/01/20 04:19:32;;;;;;;;;;;;;;;16.31;51.26;102648.75;5063637;28;19928;-42
2022/01/20 04:22:00;;;;;;;;;;;;;;;16.30;51.66;102649.72;5063250;28;19970;-41
2022/01/20 04:24:27;;;;;;;;;;;;;;;16.28;51.52;102655.19;5061402;28;19939;-42
2022/01/20 04:26:53;;;;;;;;;;;;;;;16.29;51.31;102680.97;5064625;28;20274;-42
2022/01/20 04:29:20;;;;;;;;;;;;;;;16.29;51.60;102670.28;5061999;28;19928;-42
2022/01/20 04:31:48;;;;;;;;;;;;;;;16.29;50.64;102669.41;5062748;28;19929;-41
2022/01/20 04:34:15;;;;;;;;;;;;;;;16.28;51.37;102679.25;5062307;28;19972;-42
2022/01/20 04:36:44;;;;;;;;;;;;;;;16.28;50.50;102678.38;5061335;28;19932;-43
2022/01/20 04:39:16;;;;;;;;;;;;;;;16.29;51.63;102691.69;5065836;28;19932;-42
2022/01/20 04:41:43;;;;;;;;;;;;;;;16.37;51.08;102691.19;5059707;28;19933;-42
2022/01/20 04:44:16;;;;;;;;;;;;;;;16.45;50.94;102696.06;5063140;28;19928;-42
2022/01/20 04:46:55;;;;;;;;;;;;;;;16.52;50.85;102697.38;5064475;28;19928;-42
2022/01/20 04:57:30;;;;;;;;;;;;;;;16.92;50.27;102710.88;5066812;28;19943;-41
2022/01/20 04:59:56;;;;;;;;;;;;;;;17.00;50.24;102712.13;5061425;28;19925;-42
2022/01/20 05:02:26;;;;;;;;;;;;;;;17.09;50.01;102718.69;5052530;28;19939;-41
2022/01/20 05:04:52;;;;;;;;;;;;;;;17.17;50.42;102720.84;5063309;28;20002;-42
2022/01/20 05:07:25;;;;;;;;;;;;;;;17.24;50.30;102720.31;5066575;28;20436;-41
2022/01/20 05:09:54;;;;;;;;;;;;;;;17.31;50.07;102728.81;5069709;28;19928;-42
2022/01/20 05:12:28;;;;;;;;;;;;;;;17.38;49.54;102723.91;5065520;28;20536;-43
2022/01/20 05:14:54;;;;;;;;;;;;;;;17.42;49.71;102736.16;5067036;28;19932;-42
2022/01/20 05:17:21;;;;;;;;;;;;;;;17.44;49.95;102727.00;5064837;28;20038;-42
2022/01/20 05:19:47;;;;;;;;;;;;;;;17.47;48.95;102728.63;5065548;28;20024;-44
2022/01/20 05:22:14;;;;;;;;;;;;;;;17.48;49.41;102735.72;5068370;28;19931;-41
2022/01/20 05:24:40;;;;;;;;;;;;;;;17.49;48.95;102738.31;5062650;28;19959;-42
2022/01/20 05:27:06;;;;;;;;;;;;;;;17.48;49.01;102752.66;5065375;28;19935;-41
2022/01/20 05:29:33;;;;;;;;;;;;;;;17.47;49.17;102748.25;5067624;28;19929;-42
2022/01/20 05:31:59;;;;;;;;;;;;;;;17.46;49.13;102745.69;5063026;28;19925;-42
2022/01/20 05:34:25;;;;;;;;;;;;;;;17.44;49.28;102750.28;5066767;28;19931;-42
2022/01/20 05:36:52;;;;;;;;;;;;;;;17.39;48.94;102765.81;5065010;28;20027;-42
2022/01/20 05:39:18;;;;;;;;;;;;;;;17.36;48.65;102764.19;5062124;28;19928;-42
2022/01/20 05:41:45;;;;;;;;;;;;;;;17.34;48.96;102759.91;5062498;28;20027;-42
2022/01/20 05:44:12;;;;;;;;;;;;;;;17.28;48.62;102764.72;5064809;28;19930;-42
2022/01/20 05:46:45;;;;;;;;;;;;;;;17.24;49.09;102773.91;5060663;28;19932;-41
2022/01/20 05:49:12;;;;;;;;;;;;;;;17.22;49.29;102775.00;5071448;28;20359;-42
2022/01/20 05:51:39;;;;;;;;;;;;;;;17.19;48.72;102786.75;5067422;28;20392;-42
2022/01/20 05:54:06;;;;;;;;;;;;;;;17.16;49.27;102789.63;5059643;28;20313;-42
2022/01/20 05:56:33;;;;;;;;;;;;;;;17.14;48.81;102794.25;5066668;28;20051;-42
2022/01/20 05:58:59;;;;;;;;;;;;;;;17.12;48.54;102806.88;5064975;28;19933;-42
2022/01/20 06:01:26;;;;;;;;;;;;;;;17.09;49.30;102816.97;5065871;28;19972;-41
2022/01/20 06:03:53;;;;;;;;;;;;;;;17.06;49.05;102815.31;5066016;28;20023;-42
2022/01/20 06:06:21;;;;;;;;;;;;;;;17.03;49.51;102810.16;5061764;28;20171;-42
2022/01/20 06:08:48;;;;;;;;;;;;;;;17.01;49.47;102804.06;5065736;28;19925;-42
2022/01/20 06:11:14;;;;;;;;;;;;;;;17.00;49.19;102805.88;5066097;28;19933;-42
2022/01/20 06:13:41;;;;;;;;;;;;;;;16.96;49.10;102801.66;5063665;28;19942;-42
2022/01/20 06:16:07;;;;;;;;;;;;;;;16.94;49.16;102794.69;5065265;28;19925;-41
2022/01/20 06:18:34;;;;;;;;;;;;;;;16.91;49.23;102787.69;5063949;28;19964;-40
2022/01/20 06:21:01;;;;;;;;;;;;;;;16.90;49.11;102798.53;5070493;28;19924;-42
2022/01/20 06:23:27;;;;;;;;;;;;;;;16.87;48.60;102794.22;5065084;28;19929;-42
2022/01/20 06:25:54;;;;;;;;;;;;;;;16.86;49.71;102799.69;5062547;28;19954;-41
2022/01/20 06:28:20;;;;;;;;;;;;;;;16.83;48.90;102802.53;5071045;28;19928;-41
2022/01/20 06:30:47;;;;;;;;;;;;;;;16.81;49.10;102807.16;5061997;28;19932;-42
2022/01/20 06:33:14;;;;;;;;;;;;;;;16.80;48.70;102811.63;5062919;28;19933;-41
2022/01/20 06:35:41;;;;;;;;;;;;;;;16.78;49.76;102814.41;5063009;28;20032;-42
2022/01/20 06:38:07;;;;;;;;;;;;;;;16.75;49.11;102814.59;5063744;28;19925;-41
2022/01/20 06:40:34;;;;;;;;;;;;;;;16.76;49.14;102812.78;5062879;28;20141;-40
2022/01/20 06:43:02;;;;;;;;;;;;;;;16.74;49.09;102820.06;5067372;28;20227;-42
2022/01/20 06:45:29;;;;;;;;;;;;;;;16.71;48.91;102837.13;5062309;28;19928;-41
2022/01/20 06:47:55;;;;;;;;;;;;;;;16.70;49.15;102850.63;5061388;28;20256;-42
2022/01/20 06:50:22;;;;;;;;;;;;;;;16.68;49.04;102855.22;5064897;28;19928;-42
2022/01/20 06:52:49;;;;;;;;;;;;;;;16.68;49.40;102847.16;5060484;28;19933;-41
2022/01/20 06:55:15;;;;;;;;;;;;;;;16.66;49.96;102859.81;5065332;28;19928;-41
2022/01/20 06:57:42;;;;;;;;;;;;;;;16.62;50.07;102851.09;5066097;28;20024;-41
2022/01/20 07:00:18;;;;;;;;;;;;;;;16.61;50.14;102846.72;5066866;28;19924;-42
2022/01/20 07:02:44;;;;;;;;;;;;;;;16.61;49.71;102848.53;5065338;28;19931;-43
2022/01/20 07:05:12;;;;;;;;;;;;;;;16.60;49.33;102861.03;5062199;28;19939;-42
2022/01/20 07:07:39;;;;;;;;;;;;;;;16.59;49.17;102866.50;5064615;28;19924;-42
2022/01/20 07:10:06;;;;;;;;;;;;;;;16.55;50.09;102881.88;5064679;28;19924;-42
2022/01/20 07:12:33;;;;;;;;;;;;;;;16.54;50.04;102877.50;5060582;28;19931;-42
2022/01/20 07:14:59;;;;;;;;;;;;;;;16.52;50.02;102887.41;5064892;28;19924;-42
2022/01/20 07:17:26;;;;;;;;;;;;;;;16.50;49.75;102881.31;5066474;28;20015;-42
2022/01/20 07:19:52;;;;;;;;;;;;;;;16.49;50.03;102888.47;5058983;28;19934;-42
2022/01/20 07:22:18;;;;;;;;;;;;;;;16.48;49.38;102885.88;5064448;28;19935;-43
2022/01/20 07:24:47;;;;;;;;;;;;;;;16.45;49.57;102886.94;5062577;28;19951;-42
2022/01/20 07:27:14;;;;;;;;;;;;;;;16.44;50.26;102889.69;5063995;28;20368;-42
2022/01/20 07:29:40;;;;;;;;;;;;;;;16.42;50.27;102899.66;5061487;28;19947;-42
2022/01/20 07:32:07;;;;;;;;;;;;;;;16.41;49.79;102901.47;5063103;28;19935;-41
2022/01/20 07:34:34;;;;;;;;;;;;;;;16.42;50.22;102905.84;5067288;28;20411;-41
2022/01/20 07:37:02;;;;;;;;;;;;;;;16.43;50.20;102904.91;5062688;28;19932;-41
2022/01/20 07:39:28;;;;;;;;;;;;;;;16.43;50.25;102904.03;5062345;28;20186;-42
2022/01/20 07:41:55;;;;;;;;;;;;;;;16.43;49.97;102890.66;5067284;28;19924;-41
2022/01/20 07:44:21;;;;;;;;;;;;;;;16.42;50.01;102892.47;5062630;28;20031;-41
2022/01/20 07:46:48;;;;;;;;;;;;;;;16.41;49.55;102892.59;5060691;28;20438;-42
2022/01/20 07:49:15;;;;;;;;;;;;;;;16.39;49.73;102886.44;5047881;28;20044;-41
2022/01/20 07:51:43;;;;;;;;;;;;;;;16.40;49.32;102893.50;5063072;28;19935;-41
2022/01/20 07:54:10;;;;;;;;;;;;;;;16.38;50.19;102895.44;5066254;28;19989;-41
2022/01/20 07:56:39;;;;;;;;;;;;;;;16.37;49.50;102910.63;5067282;28;19932;-41
2022/01/20 07:59:06;;;;;;;;;;;;;;;16.38;49.35;102914.19;5062978;28;19928;-42
2022/01/20 08:01:33;;;;;;;;;;;;;;;16.35;50.22;102933.94;5062344;28;19987;-41
2022/01/20 08:04:00;;;;;;;;;;;;;;;16.34;49.86;102934.03;5047609;28;20315;-41
2022/01/20 08:06:26;;;;;;;;;;;;;;;16.33;49.89;102926.97;5060632;28;19951;-40
2022/01/20 08:08:52;;;;;;;;;;;;;;;16.33;49.41;102930.50;5065721;28;19924;-40
2022/01/20 08:11:21;;;;;;;;;;;;;;;16.33;50.03;102935.00;5062367;28;19925;-40
2022/01/20 08:13:47;;;;;;;;;;;;;;;16.30;49.77;102917.31;5061014;28;19971;-40
2022/01/20 08:16:14;;;;;;;;;;;;;;;16.31;49.84;102924.38;5062060;28;19954;-41
2022/01/20 08:18:40;;;;;;;;;;;;;;;16.27;49.88;102929.03;5063069;28;19925;-42
2022/01/20 08:21:06;;;;;;;;;;;;;;;16.27;49.48;102939.75;5064613;28;19928;-41
2022/01/20 08:23:33;;;;;;;;;;;;;;;16.26;50.03;102938.03;5061435;28;19930;-42
2022/01/20 08:25:59;;;;;;;;;;;;;;;16.26;50.18;102946.06;5068885;28;19944;-41
2022/01/20 08:28:26;;;;;;;;;;;;;;;16.26;49.95;102954.09;5059591;28;19932;-42
2022/01/20 08:30:52;;;;;;;;;;;;;;;16.25;49.24;102947.03;5062020;28;19933;-41
2022/01/20 08:33:19;;;;;;;;;;;;;;;16.26;49.65;102950.56;5065126;28;19924;-42
2022/01/20 08:35:46;;;;;;;;;;;;;;;16.25;50.41;102947.03;5063324;28;19935;-42
2022/01/20 08:38:12;;;;;;;;;;;;;;;16.25;49.87;102952.38;5067672;28;20015;-41
2022/01/20 08:40:39;;;;;;;;;;;;;;;16.25;49.48;102949.69;5061538;28;19951;-42
2022/01/20 08:43:06;;;;;;;;;;;;;;;16.25;49.69;102954.19;5063809;28;20023;-42
2022/01/20 08:45:34;;;;;;;;;;;;;;;16.26;50.94;102962.13;5063909;28;19940;-42
2022/01/20 08:48:01;;;;;;;;;;;;;;;16.28;50.69;102957.53;5064416;28;19963;-42
2022/01/20 08:50:28;;;;;;;;;;;;;;;16.34;50.47;102958.13;5063564;28;19924;-42
2022/01/20 08:52:55;;;;;;;;;;;;;;;16.35;49.36;102957.16;5067949;28;20320;-41
2022/01/20 08:55:23;;;;;;;;;;;;;;;16.35;49.96;102966.06;5065001;28;20384;-42
2022/01/20 08:57:50;;;;;;;;;;;;;;;16.35;49.79;102970.53;5065694;28;19990;-42
2022/01/20 09:00:16;;;;;;;;;;;;;;;16.36;49.34;102977.63;5066459;28;20564;-41
2022/01/20 09:02:43;;;;;;;;;;;;;;;16.36;49.67;102980.28;5065891;28;20443;-42
2022/01/20 09:05:09;;;;;;;;;;;;;;;16.39;50.91;102972.09;5068615;28;20441;-41
2022/01/20 09:07:36;;;;;;;;;;;;;;;16.41;50.88;102989.78;5067332;28;19924;-41
2022/01/20 09:10:07;;;;;;;;;;;;;;;16.44;50.50;102988.72;5066062;28;20051;-41
2022/01/20 09:17:47;;;;;;;;;;;;;;;16.56;49.40;103008.56;5064567;28;19935;-41
2022/01/20 09:20:14;;;;;;;;;;;;;;;16.59;50.21;103014.59;5065683;28;20024;-40
2022/01/20 09:22:40;;;;;;;;;;;;;;;16.64;49.68;103017.00;5062399;28;19925;-40
2022/01/20 09:25:07;;;;;;;;;;;;;;;16.68;49.02;103016.75;5067903;28;19954;-40
2022/01/20 09:27:33;;;;;;;;;;;;;;;16.71;49.08;103013.88;5064775;28;20239;-40
2022/01/20 09:30:01;;;;;;;;;;;;;;;16.75;48.90;103018.13;5065300;28;19964;-40
2022/01/20 09:32:30;;;;;;;;;;;;;;;16.79;48.35;103026.81;5064311;28;20379;-40
2022/01/20 09:34:56;;;;;;;;;;;;;;;16.81;48.38;103016.91;5063678;28;20214;-41
2022/01/20 09:37:23;;;;;;;;;;;;;;;16.85;47.80;103020.25;5067477;28;19924;-39
2022/01/20 09:39:50;;;;;;;;;;;;;;;16.85;47.60;103005.03;5065960;28;19959;-40
2022/01/20 09:42:16;;;;;;;;;;;;;;;16.87;48.12;103007.63;5065491;28;19959;-40
2022/01/20 09:44:44;;;;;;;;;;;;;;;16.86;47.36;103003.22;5066709;28;20346;-41
2022/01/20 09:47:15;;;;;;;;;;;;;;;16.86;46.98;103005.91;5063408;28;19960;-41
2022/01/20 09:49:42;;;;;;;;;;;;;;;16.84;47.15;103013.16;5062102;28;20346;-40
2022/01/20 09:52:09;;;;;;;;;;;;;;;16.82;47.09;103018.63;5064851;28;19925;-40
2022/01/20 09:54:36;;;;;;;;;;;;;;;16.80;47.39;103038.41;5061290;28;20094;-41
2022/01/20 09:57:02;;;;;;;;;;;;;;;16.78;46.91;103039.38;5063803;28;19968;-40
2022/01/20 09:59:30;;;;;;;;;;;;;;;16.75;47.83;103036.84;5060365;28;19925;-40
2022/01/20 10:01:58;;;;;;;;;;;;;;;16.72;47.52;103050.41;5067016;28;19974;-41
2022/01/20 10:04:25;;;;;;;;;;;;;;;16.73;48.31;103057.53;5064138;28;19939;-42
2022/01/20 10:06:53;;;;;;;;;;;;;;;16.72;47.77;103062.91;5063096;28;20030;-42
2022/01/20 10:09:30;;;;;;;;;;;;;;;16.71;47.55;103059.38;5066276;28;20239;-42
2022/01/20 10:11:57;;;;;;;;;;;;;;;16.70;46.93;103064.84;5072569;28;20021;-42
2022/01/20 10:14:24;;;;;;;;;;;;;;;16.68;47.13;103064.94;5065807;28;19925;-42
2022/01/20 10:16:51;;;;;;;;;;;;;;;16.67;47.54;103065.88;5068754;28;19971;-42
2022/01/20 10:19:21;;;;;;;;;;;;;;;16.72;47.73;103065.59;5066396;28;20007;-43
2022/01/20 10:21:48;;;;;;;;;;;;;;;16.74;46.94;103067.28;5056610;28;20020;-40
2022/01/20 10:24:15;;;;;;;;;;;;;;;16.76;45.82;103068.06;5062253;28;20015;-40
2022/01/20 10:26:41;;;;;;;;;;;;;;;16.84;46.69;103077.44;5062120;28;20019;-40
2022/01/20 10:29:09;;;;;;;;;;;;;;;16.88;47.30;103077.16;5066485;28;20006;-40
2022/01/20 10:31:43;;;;;;;;;;;;;;;16.93;47.51;103083.13;5065979;28;20368;-40
2022/01/20 10:34:19;;;;;;;;;;;;;;;16.97;46.77;103086.50;5067017;28;19928;-41
2022/01/20 10:36:51;;;;;;;;;;;;;;;16.99;46.94;103093.47;5065179;28;19971;-41
2022/01/20 10:39:18;;;;;;;;;;;;;;;17.03;46.78;103099.50;5061521;28;19928;-38
2022/01/20 10:41:44;;;;;;;;;;;;;;;17.07;47.45;103110.91;5065126;28;20066;-41
2022/01/20 10:44:14;;;;;;;;;;;;;;;17.07;46.06;103124.28;5064067;28;20086;-38
2022/01/20 10:46:42;;;;;;;;;;;;;;;17.06;45.33;103115.41;5065286;28;19963;-38
2022/01/20 10:49:08;;;;;;;;;;;;;;;17.05;45.69;103134.25;5065456;28;20019;-38
2022/01/20 10:51:34;;;;;;;;;;;;;;;17.00;45.62;103140.75;5062704;28;20565;-40
2022/01/20 10:54:03;;;;;;;;;;;;;;;16.99;46.25;103140.81;5065576;28;20473;-37
2022/01/20 10:56:30;;;;;;;;;;;;;;;16.97;46.25;103134.72;5064270;28;19925;-39
2022/01/20 10:59:06;;;;;;;;;;;;;;;16.96;46.31;103122.25;5064988;28;20028;-38
2022/01/20 11:01:32;;;;;;;;;;;;;;;16.94;46.93;103122.34;5066820;28;19959;-38
2022/01/20 11:03:59;;;;;;;;;;;;;;;17.00;46.64;103126.47;5062454;28;19924;-36
2022/01/20 11:06:27;;;;;;;;;;;;;;;17.03;47.18;103115.56;5059196;28;19956;-39
2022/01/20 11:08:55;;;;;;;;;;;;;;;17.07;46.48;103125.16;5063861;28;19929;-40
2022/01/20 11:11:23;;;;;;;;;;;;;;;17.10;47.20;103122.28;5063394;28;20293;-39
2022/01/20 11:13:51;;;;;;;;;;;;;;;17.12;46.27;103109.66;5063737;28;19933;-39
2022/01/20 11:16:18;;;;;;;;;;;;;;;17.13;45.97;103103.38;5064405;28;19932;-41
2022/01/20 11:18:45;;;;;;;;;;;;;;;17.12;45.91;103087.34;5063718;28;19928;-41
2022/01/20 11:21:22;;;;;;;;;;;;;;;17.09;45.63;103091.09;5062330;28;20354;-39
2022/01/20 11:23:48;;;;;;;;;;;;;;;17.08;45.69;103084.00;5060707;28;20031;-38
2022/01/20 11:26:19;;;;;;;;;;;;;;;17.06;45.35;103090.44;5061084;28;19932;-39
2022/01/20 11:28:59;;;;;;;;;;;;;;;17.03;45.76;103092.31;5064136;28;20032;-38
2022/01/20 11:31:29;;;;;;;;;;;;;;;17.06;46.04;103085.94;5062767;28;19930;-38
2022/01/20 11:33:56;;;;;;;;;;;;;;;17.10;45.91;103082.09;5063247;28;20279;-37
2022/01/20 11:36:27;;;;;;;;;;;;;;;17.15;46.09;103077.31;5062674;28;20086;-39
2022/01/20 11:39:17;;;;;;;;;;;;;;;17.21;45.89;103076.97;5063111;28;19932;-41
2022/01/20 11:41:47;;;;;;;;;;;;;;;17.26;45.90;103079.34;5062827;28;19925;-38
2022/01/20 11:44:15;;;;;;;;;;;;;;;17.34;46.14;103081.56;5063695;28;20313;-37
2022/01/20 11:46:45;;;;;;;;;;;;;;;17.39;46.09;103072.28;5060832;28;19947;-37
2022/01/20 11:49:13;;;;;;;;;;;;;;;17.46;46.54;103070.94;5061709;28;20020;-36
2022/01/20 11:51:42;;;;;;;;;;;;;;;17.54;46.20;103066.94;5060467;28;19948;-38
2022/01/20 11:54:27;;;;;;;;;;;;;;;17.62;45.69;103070.00;5062790;28;19924;-41
2022/01/20 11:57:04;;;;;;;;;;;;;;;17.66;45.50;103061.66;5063030;28;20021;-39
2022/01/20 11:59:38;;;;;;;;;;;;;;;17.73;45.10;103060.31;5059443;28;19925;-39
2022/01/20 12:02:05;;;;;;;;;;;;;;;17.80;45.13;103068.84;5063476;28;19925;-37
2022/01/20 12:04:37;;;;;;;;;;;;;;;17.84;45.28;103061.47;5063006;28;19964;-41
2022/01/20 12:07:04;;;;;;;;;;;;;;;17.89;45.12;103054.84;5060153;28;19939;-39
2022/01/20 12:09:34;;;;;;;;;;;;;;;17.94;45.24;103054.56;5063404;28;19933;-40
2022/01/20 12:12:00;;;;;;;;;;;;;;;17.99;44.88;103049.75;5063117;28;19946;-40
2022/01/20 12:14:35;;;;;;;;;;;;;;;18.02;44.47;103062.97;5063484;28;20457;-41
2022/01/20 12:17:03;;;;;;;;;;;;;;;18.05;44.39;103075.31;5059084;28;20333;-39
2022/01/20 12:19:30;;;;;;;;;;;;;;;18.07;44.90;103079.63;5059193;28;19935;-37
2022/01/20 12:21:56;;;;;;;;;;;;;;;18.10;44.76;103070.53;5059526;28;20259;-39
2022/01/20 12:24:23;;;;;;;;;;;;;;;18.12;44.69;103068.59;5059806;28;19924;-38
2022/01/20 12:26:49;;;;;;;;;;;;;;;18.14;44.72;103067.53;5064708;28;20018;-39
2022/01/20 12:29:16;;;;;;;;;;;;;;;18.17;44.86;103066.47;5066246;28;19990;-39
2022/01/20 12:31:51;;;;;;;;;;;;;;;18.19;44.91;103069.91;5063902;28;20015;-37
2022/01/20 12:34:19;;;;;;;;;;;;;;;18.22;44.78;103065.22;5062132;28;20011;-39
2022/01/20 12:36:49;;;;;;;;;;;;;;;18.23;44.94;103063.38;5058674;28;20392;-40
2022/01/20 12:39:20;;;;;;;;;;;;;;;18.26;44.90;103068.56;5078759;28;20035;-38
2022/01/20 12:41:52;;;;;;;;;;;;;;;18.29;45.05;103073.72;5061595;28;19928;-36
2022/01/20 12:44:19;;;;;;;;;;;;;;;18.33;44.95;103079.72;5062927;28;20007;-41
2022/01/20 12:46:46;;;;;;;;;;;;;;;18.37;44.75;103070.50;5063078;28;19936;-39
2022/01/20 12:49:14;;;;;;;;;;;;;;;18.39;45.04;103076.66;5059512;28;19935;-41
2022/01/20 12:51:41;;;;;;;;;;;;;;;18.42;44.71;103063.03;5062416;28;19930;-39
2022/01/20 12:54:16;;;;;;;;;;;;;;;18.45;44.74;103055.66;5061066;28;20315;-40
2022/01/20 12:56:44;;;;;;;;;;;;;;;18.49;45.03;103067.00;5064654;28;20275;-41
2022/01/20 12:59:12;;;;;;;;;;;;;;;18.52;44.86;103057.91;5057421;28;19935;-39
2022/01/20 13:02:06;;;;;;;;;;;;;;;18.54;44.40;103062.22;5062016;28;19928;-41
2022/01/20 13:04:34;;;;;;;;;;;;;;;18.56;44.62;103054.91;5064090;28;19933;-40
2022/01/20 13:07:02;;;;;;;;;;;;;;;18.58;44.52;103062.88;5070562;28;20323;-41
2022/01/20 13:09:36;;;;;;;;;;;;;;;18.60;44.72;103059.09;5064151;28;19929;-41
2022/01/20 13:12:03;;;;;;;;;;;;;;;18.62;44.65;103059.88;5063289;28;19935;-38
2022/01/20 13:14:34;;;;;;;;;;;;;;;18.63;44.93;103058.91;5061790;28;20011;-38
2022/01/20 13:17:00;;;;;;;;;;;;;;;18.64;44.53;103055.25;5063901;28;19926;-41
2022/01/20 13:19:37;;;;;;;;;;;;;;;18.66;44.58;103069.44;5062307;28;19929;-41
2022/01/20 13:22:06;;;;;;;;;;;;;;;18.67;44.37;103067.63;5066851;28;20389;-38
2022/01/20 13:24:33;;;;;;;;;;;;;;;18.68;44.58;103072.88;5062246;28;19935;-41
2022/01/20 13:27:00;;;;;;;;;;;;;;;18.70;44.37;103070.16;5066163;28;19932;-40
2022/01/20 13:29:38;;;;;;;;;;;;;;;18.70;44.40;103067.44;5070389;28;20094;-38
2022/01/20 13:32:06;;;;;;;;;;;;;;;18.72;44.24;103078.94;5068800;28;20236;-40
2022/01/20 13:34:32;;;;;;;;;;;;;;;18.73;44.31;103069.91;5063051;28;20011;-40
2022/01/20 13:36:59;;;;;;;;;;;;;;;18.76;44.22;103068.84;5069603;28;20007;-40
2022/01/20 13:39:35;;;;;;;;;;;;;;;18.76;44.08;103058.09;5064793;28;20545;-39
2022/01/20 13:42:03;;;;;;;;;;;;;;;18.77;44.04;103049.06;5065864;28;20100;-38
2022/01/20 13:47:14;;;;;;;;;;;;;;;18.79;44.38;103072.19;5064801;28;19928;-39